createdAt,value
2019-02-04T00:00:13.558Z,10.78
2019-02-04T00:02:42.247Z,9.70
2019-02-04T00:05:10.449Z,10.30
2019-02-04T00:07:38.651Z,9.45
2019-02-04T00:10:10.051Z,10.70
2019-02-04T00:12:38.264Z,10.20
2019-02-04T00:15:08.400Z,9.50
2019-02-04T00:20:09.952Z,10.13
2019-02-04T00:22:38.161Z,11.03
2019-02-04T00:25:07.208Z,10.32
2019-02-04T00:27:35.415Z,9.50
2019-02-04T00:30:05.508Z,9.43
2019-02-04T00:32:33.784Z,9.63
2019-02-04T00:35:01.985Z,9.23
2019-02-04T00:37:30.189Z,9.13
2019-02-04T00:39:58.387Z,9.40
2019-02-04T00:42:26.592Z,9.43
2019-02-04T00:44:54.836Z,8.35
2019-02-04T00:47:23.372Z,8.80
2019-02-04T00:49:51.565Z,8.73
2019-02-04T00:52:19.768Z,9.10
2019-02-04T00:54:48.032Z,9.68
2019-02-04T00:57:16.232Z,10.43
2019-02-04T00:59:44.435Z,10.63
2019-02-04T01:02:12.916Z,10.25
2019-02-04T01:04:41.120Z,10.85
2019-02-04T01:07:09.381Z,9.23
2019-02-04T01:09:37.583Z,9.90
2019-02-04T01:12:05.790Z,11.15
2019-02-04T01:14:33.996Z,10.35
2019-02-04T01:17:03.382Z,10.05
2019-02-04T01:19:32.188Z,10.00
2019-02-04T01:22:01.059Z,9.73
2019-02-04T01:24:29.260Z,9.43
2019-02-04T01:26:57.459Z,10.38
2019-02-04T01:29:25.680Z,10.03
2019-02-04T01:31:53.871Z,10.23
2019-02-04T01:34:22.151Z,10.90
2019-02-04T01:36:50.344Z,9.63
2019-02-04T01:39:18.552Z,9.28
2019-02-04T01:41:46.760Z,9.80
2019-02-04T01:44:14.959Z,9.78
2019-02-04T01:46:43.156Z,9.90
2019-02-04T01:49:11.639Z,10.00
2019-02-04T01:51:39.835Z,9.93
2019-02-04T01:54:08.047Z,8.75
2019-02-04T01:56:36.235Z,8.30
2019-02-04T01:59:04.445Z,9.33
2019-02-04T02:01:32.652Z,9.43
2019-02-04T02:04:00.851Z,9.00
2019-02-04T02:06:29.035Z,9.68
2019-02-04T02:08:57.236Z,8.60
2019-02-04T02:11:25.443Z,9.68
2019-02-04T02:13:53.635Z,9.50
2019-02-04T02:16:21.848Z,9.20
2019-02-04T02:18:50.040Z,9.25
2019-02-04T02:21:18.251Z,9.55
2019-02-04T02:23:46.449Z,9.68
2019-02-04T02:26:14.648Z,9.43
2019-02-04T02:28:42.846Z,8.85
2019-02-04T02:31:11.044Z,8.93
2019-02-04T02:33:39.241Z,9.13
2019-02-04T02:36:07.824Z,9.08
2019-02-04T02:38:36.029Z,9.90
2019-02-04T02:41:04.232Z,9.95
2019-02-04T02:43:32.424Z,14.33
2019-02-04T02:46:00.632Z,15.20
2019-02-04T02:48:28.837Z,14.53
2019-02-04T02:50:57.048Z,15.00
2019-02-04T02:53:25.246Z,12.43
2019-02-04T02:55:53.460Z,12.60
2019-02-04T02:58:21.698Z,13.35
2019-02-04T03:00:49.940Z,12.30
2019-02-04T03:03:18.151Z,11.65
2019-02-04T03:05:46.351Z,11.80
2019-02-04T03:08:14.932Z,10.95
2019-02-04T03:10:43.142Z,12.03
2019-02-04T03:13:11.348Z,10.45
2019-02-04T03:15:39.555Z,10.35
2019-02-04T03:18:07.751Z,9.50
2019-02-04T03:20:35.951Z,9.30
2019-02-04T03:23:04.640Z,9.83
2019-02-04T03:25:32.838Z,9.93
2019-02-04T03:28:01.095Z,9.88
2019-02-04T03:30:31.366Z,9.70
2019-02-04T03:32:59.563Z,9.53
2019-02-04T03:35:27.748Z,10.35
2019-02-04T03:37:55.970Z,8.98
2019-02-04T03:40:29.515Z,9.08
2019-02-04T03:42:57.740Z,8.33
2019-02-04T03:45:25.961Z,9.83
2019-02-04T03:48:04.498Z,9.35
2019-02-04T03:50:24.148Z,9.45
2019-02-04T03:52:53.064Z,8.73
2019-02-04T03:55:21.263Z,9.88
2019-02-04T03:57:49.468Z,9.55
2019-02-04T04:00:20.559Z,9.23
2019-02-04T04:02:48.770Z,8.98
2019-02-04T04:05:16.968Z,9.38
2019-02-04T04:07:45.448Z,9.65
2019-02-04T04:10:14.018Z,10.25
2019-02-04T04:12:42.221Z,8.58
2019-02-04T04:15:12.355Z,9.20
2019-02-04T04:17:40.567Z,10.40
2019-02-04T04:20:11.100Z,9.18
2019-02-04T04:22:39.484Z,9.68
2019-02-04T04:25:10.394Z,9.50
2019-02-04T04:27:38.601Z,9.20
2019-02-04T04:30:12.877Z,9.70
2019-02-04T04:32:41.085Z,9.28
2019-02-04T04:35:09.275Z,9.30
2019-02-04T04:37:37.480Z,9.35
2019-02-04T04:40:08.895Z,9.13
2019-02-04T04:42:37.091Z,9.75
2019-02-04T04:45:08.090Z,9.70
2019-02-04T04:47:36.297Z,10.03
2019-02-04T04:50:06.707Z,9.30
2019-02-04T04:52:34.919Z,10.15
2019-02-04T04:55:03.795Z,10.00
2019-02-04T04:57:31.995Z,10.75
2019-02-04T05:00:00.327Z,9.93
2019-02-04T05:02:28.680Z,10.72
2019-02-04T05:04:57.261Z,9.28
2019-02-04T05:07:25.455Z,10.03
2019-02-04T05:09:53.945Z,9.43
2019-02-04T05:12:22.144Z,9.80
2019-02-04T05:14:50.357Z,10.98
2019-02-04T05:17:18.552Z,9.88
2019-02-04T05:19:46.761Z,9.68
2019-02-04T05:22:15.141Z,10.55
2019-02-04T05:24:43.351Z,10.15
2019-02-04T05:27:11.555Z,11.18
2019-02-04T05:29:39.781Z,10.53
2019-02-04T05:32:07.976Z,9.98
2019-02-04T05:34:36.192Z,9.68
2019-02-04T05:37:04.765Z,10.80
2019-02-04T05:39:32.971Z,10.85
2019-02-04T05:42:01.189Z,11.30
2019-02-04T05:44:29.399Z,11.05
2019-02-04T05:46:57.597Z,10.82
2019-02-04T05:49:25.813Z,10.63
2019-02-04T05:51:55.143Z,11.12
2019-02-04T05:54:23.561Z,11.68
2019-02-04T05:56:51.769Z,12.07
2019-02-04T05:59:19.979Z,12.80
2019-02-04T06:01:48.179Z,12.07
2019-02-04T06:04:16.384Z,13.23
2019-02-04T06:06:44.581Z,14.80
2019-02-04T06:09:13.097Z,14.00
2019-02-04T06:11:41.297Z,14.13
2019-02-04T06:14:09.526Z,15.00
2019-02-04T06:16:37.725Z,14.00
2019-02-04T06:19:05.925Z,13.98
2019-02-04T06:21:34.150Z,13.90
2019-02-04T06:24:02.743Z,13.55
2019-02-04T06:26:30.955Z,13.85
2019-02-04T06:28:59.151Z,13.25
2019-02-04T06:31:27.371Z,12.50
2019-02-04T06:33:56.133Z,14.68
2019-02-04T06:36:24.352Z,14.85
2019-02-04T06:38:52.919Z,14.38
2019-02-04T06:41:21.130Z,15.13
2019-02-04T06:43:49.327Z,15.18
2019-02-04T06:46:17.551Z,14.40
2019-02-04T06:48:45.739Z,15.28
2019-02-04T06:51:14.256Z,15.20
2019-02-04T06:53:42.460Z,15.50
2019-02-04T06:56:10.672Z,16.37
2019-02-04T06:58:38.876Z,15.25
2019-02-04T07:01:07.088Z,13.65
2019-02-04T07:03:35.288Z,14.53
2019-02-04T07:06:03.496Z,14.25
2019-02-04T07:08:31.714Z,14.73
2019-02-04T07:11:00.289Z,14.50
2019-02-04T07:13:28.489Z,14.65
2019-02-04T07:15:56.697Z,14.13
2019-02-04T07:18:24.895Z,14.18
2019-02-04T07:20:53.108Z,13.70
2019-02-04T07:23:21.348Z,13.80
2019-02-04T07:25:49.552Z,12.40
2019-02-04T07:28:18.032Z,13.28
2019-02-04T07:30:46.240Z,13.32
2019-02-04T07:33:14.441Z,12.37
2019-02-04T07:35:42.658Z,12.85
2019-02-04T07:38:10.844Z,11.20
2019-02-04T07:40:39.048Z,11.12
2019-02-04T07:43:07.256Z,10.90
2019-02-04T07:45:35.470Z,10.53
2019-02-04T07:48:03.674Z,11.50
2019-02-04T07:50:31.864Z,9.95
2019-02-04T07:53:00.076Z,11.28
2019-02-04T07:55:28.279Z,10.82
2019-02-04T07:57:57.325Z,11.65
2019-02-04T08:00:31.977Z,9.75
2019-02-04T08:03:00.182Z,10.38
2019-02-04T08:05:28.462Z,10.85
2019-02-04T08:07:56.918Z,10.53
2019-02-04T08:10:25.112Z,10.60
2019-02-04T08:13:01.131Z,11.25
2019-02-04T08:15:28.898Z,11.70
2019-02-04T08:17:57.648Z,14.87
2019-02-04T08:20:26.581Z,12.18
2019-02-04T08:22:54.795Z,11.00
2019-02-04T08:25:25.840Z,10.05
2019-02-04T08:27:52.931Z,9.40
2019-02-04T08:30:32.461Z,12.58
2019-02-04T08:33:00.745Z,10.80
2019-02-04T08:35:28.999Z,10.28
2019-02-04T08:37:57.212Z,9.75
2019-02-04T08:40:25.436Z,8.68
2019-02-04T08:42:54.005Z,9.78
2019-02-04T08:45:22.203Z,9.75
2019-02-04T08:47:50.409Z,9.18
2019-02-04T08:50:20.552Z,9.00
2019-02-04T08:52:48.757Z,9.15
2019-02-04T08:55:16.954Z,10.03
2019-02-04T08:57:45.162Z,9.80
2019-02-04T09:00:18.744Z,9.83
2019-02-04T09:02:46.951Z,9.65
2019-02-04T09:05:16.184Z,11.45
2019-02-04T09:07:44.539Z,10.65
2019-02-04T09:10:16.005Z,9.38
2019-02-04T09:12:44.199Z,10.68
2019-02-04T09:15:16.231Z,10.03
2019-02-04T09:17:44.236Z,11.30
2019-02-04T09:20:15.189Z,11.22
2019-02-04T09:22:43.464Z,10.25
2019-02-04T09:25:14.240Z,9.43
2019-02-04T09:27:42.450Z,10.03
2019-02-04T09:30:19.477Z,9.83
2019-02-04T09:32:47.671Z,9.68
2019-02-04T09:35:20.562Z,9.45
2019-02-04T09:37:48.760Z,9.03
2019-02-04T09:40:22.555Z,8.13
2019-02-04T09:42:51.028Z,8.80
2019-02-04T09:45:19.243Z,8.88
2019-02-04T09:47:47.440Z,9.15
2019-02-04T09:50:21.732Z,8.85
2019-02-04T09:52:48.217Z,9.73
2019-02-04T09:55:24.694Z,8.15
2019-02-04T09:57:52.894Z,8.63
2019-02-04T10:00:23.641Z,8.13
2019-02-04T10:02:51.843Z,8.78
2019-02-04T10:05:20.291Z,8.58
2019-02-04T10:07:48.491Z,9.13
2019-02-04T10:10:21.830Z,8.95
2019-02-04T10:12:52.497Z,8.35
2019-02-04T10:15:22.411Z,8.05
2019-02-04T10:17:50.609Z,9.13
2019-02-04T10:20:18.887Z,8.58
2019-02-04T10:22:47.092Z,8.78
2019-02-04T10:25:21.733Z,8.80
2019-02-04T10:27:50.014Z,9.70
2019-02-04T10:30:20.343Z,9.43
2019-02-04T10:32:48.674Z,9.35
2019-02-04T10:35:17.422Z,9.08
2019-02-04T10:37:47.341Z,9.40
2019-02-04T10:40:20.477Z,8.95
2019-02-04T10:42:48.715Z,9.30
2019-02-04T10:45:18.442Z,8.63
2019-02-04T10:47:46.752Z,9.07
2019-02-04T10:50:23.849Z,8.70
2019-02-04T10:52:52.126Z,9.23
2019-02-04T10:55:20.357Z,8.70
2019-02-04T10:57:48.597Z,9.80
2019-02-04T11:00:25.715Z,10.93
2019-02-04T11:02:53.951Z,9.90
2019-02-04T11:05:24.613Z,10.30
2019-02-04T11:07:52.901Z,10.05
2019-02-04T11:10:23.058Z,8.90
2019-02-04T11:12:51.333Z,10.82
2019-02-04T11:15:19.647Z,9.75
2019-02-04T11:17:47.848Z,10.58
2019-02-04T11:20:19.441Z,9.73
2019-02-04T11:22:47.684Z,11.08
2019-02-04T11:25:15.938Z,9.28
2019-02-04T11:27:44.229Z,8.43
2019-02-04T11:30:18.324Z,9.48
2019-02-04T11:32:46.524Z,8.20
2019-02-04T11:35:14.816Z,8.78
2019-02-04T11:37:43.025Z,8.75
2019-02-04T11:40:38.140Z,8.65
2019-02-04T11:43:06.739Z,6.53
2019-02-04T11:45:35.049Z,6.72
2019-02-04T11:48:04.921Z,7.05
2019-02-04T11:50:33.168Z,6.95
2019-02-04T11:53:01.380Z,6.17
2019-02-04T11:55:29.582Z,6.12
2019-02-04T11:57:57.797Z,6.08
2019-02-04T12:00:30.604Z,7.12
2019-02-04T12:03:00.453Z,6.12
2019-02-04T12:05:28.651Z,5.60
2019-02-04T12:07:56.886Z,6.95
2019-02-04T12:10:30.812Z,6.22
2019-02-04T12:12:59.395Z,7.22
2019-02-04T12:15:27.595Z,5.80
2019-02-04T12:17:56.122Z,5.17
2019-02-04T12:20:24.320Z,5.65
2019-02-04T12:22:52.538Z,4.95
2019-02-04T12:25:23.428Z,4.37
2019-02-04T12:27:52.012Z,4.97
2019-02-04T12:30:32.207Z,4.65
2019-02-04T12:33:01.251Z,4.08
2019-02-04T12:35:29.441Z,4.03
2019-02-04T12:37:57.648Z,4.12
2019-02-04T12:40:25.844Z,4.40
2019-02-04T12:42:54.438Z,3.80
2019-02-04T12:45:28.128Z,4.05
2019-02-04T12:47:56.856Z,3.22
2019-02-04T12:50:25.053Z,3.15
2019-02-04T12:52:53.264Z,3.75
2019-02-04T12:55:31.636Z,3.25
2019-02-04T12:57:59.874Z,2.70
2019-02-04T13:00:29.480Z,3.27
2019-02-04T13:02:57.694Z,2.90
2019-02-04T13:05:35.015Z,3.62
2019-02-04T13:08:03.769Z,3.90
2019-02-04T13:10:32.024Z,4.35
2019-02-04T13:13:00.249Z,3.72
2019-02-04T13:15:28.440Z,3.60
2019-02-04T13:17:56.648Z,3.22
2019-02-04T13:20:24.840Z,3.45
2019-02-04T13:22:53.044Z,3.52
2019-02-04T13:25:26.428Z,2.60
2019-02-04T13:27:54.673Z,3.00
2019-02-04T13:30:27.638Z,3.10
2019-02-04T13:32:56.167Z,3.10
2019-02-04T13:35:24.372Z,3.30
2019-02-04T13:37:53.044Z,3.65
2019-02-04T13:40:26.580Z,3.05
2019-02-04T13:42:54.842Z,2.90
2019-02-04T13:45:23.052Z,2.90
2019-02-04T13:47:53.460Z,3.62
2019-02-04T13:50:22.706Z,3.20
2019-02-04T13:52:51.845Z,3.02
2019-02-04T13:55:23.120Z,3.47
2019-02-04T13:57:51.332Z,3.12
2019-02-04T14:00:19.539Z,3.12
2019-02-04T14:02:58.510Z,3.27
2019-02-04T14:05:17.708Z,2.95
2019-02-04T14:07:45.903Z,2.72
2019-02-04T14:10:20.261Z,2.95
2019-02-04T14:12:48.458Z,2.62
2019-02-04T14:15:17.204Z,3.00
2019-02-04T14:17:45.387Z,2.50
2019-02-04T14:20:18.883Z,2.98
2019-02-04T14:22:47.076Z,3.10
2019-02-04T14:25:16.156Z,3.12
2019-02-04T14:27:44.340Z,2.87
2019-02-04T14:30:18.734Z,3.10
2019-02-04T14:32:47.209Z,2.67
2019-02-04T14:35:15.460Z,2.77
2019-02-04T14:37:45.100Z,5.33
2019-02-04T14:40:18.716Z,2.90
2019-02-04T14:42:45.697Z,3.22
2019-02-04T14:47:49.253Z,3.45
2019-02-04T14:50:26.809Z,3.70
2019-02-04T14:53:16.653Z,3.25
2019-02-04T14:55:48.120Z,3.57
2019-02-04T14:58:25.307Z,3.67
2019-02-04T15:01:20.440Z,3.47
2019-02-04T15:04:00.825Z,3.67
2019-02-04T15:06:38.426Z,4.17
2019-02-04T15:09:26.505Z,5.08
2019-02-04T15:12:19.092Z,4.70
2019-02-04T15:14:56.500Z,5.28
2019-02-04T15:17:25.852Z,4.75
2019-02-04T15:20:16.940Z,5.50
2019-02-04T15:22:57.190Z,5.22
2019-02-04T15:25:46.771Z,5.40
2019-02-04T15:28:27.024Z,5.58
2019-02-04T15:31:04.628Z,5.67
2019-02-04T15:33:42.040Z,5.20
2019-02-04T15:36:19.323Z,6.25
2019-02-04T15:39:12.016Z,5.72
2019-02-04T15:41:55.105Z,6.30
2019-02-04T15:44:38.408Z,5.25
2019-02-04T15:47:12.448Z,5.75
2019-02-04T15:50:12.250Z,5.70
2019-02-04T15:52:45.486Z,5.77
2019-02-04T15:55:13.610Z,5.37
2019-02-04T15:57:41.896Z,5.83
2019-02-04T16:00:12.740Z,5.75
2019-02-04T16:02:40.964Z,5.40
2019-02-04T16:05:10.283Z,5.50
2019-02-04T16:07:38.768Z,6.60
2019-02-04T16:10:15.242Z,6.53
2019-02-04T16:12:43.439Z,11.40
2019-02-04T16:15:13.587Z,15.70
2019-02-04T16:17:41.789Z,9.88
2019-02-04T16:20:19.040Z,9.40
2019-02-04T16:22:57.753Z,6.28
2019-02-04T16:25:17.240Z,5.28
2019-02-04T16:27:45.444Z,5.08
2019-02-04T16:30:19.035Z,5.00
2019-02-04T16:32:47.248Z,5.28
2019-02-04T16:35:19.361Z,4.80
2019-02-04T16:37:48.304Z,4.85
2019-02-04T16:40:21.805Z,4.83
2019-02-04T16:42:50.047Z,4.90
2019-02-04T16:45:20.692Z,4.78
2019-02-04T16:47:49.328Z,4.87
2019-02-04T16:50:20.794Z,5.00
2019-02-04T16:52:48.988Z,7.30
2019-02-04T16:55:17.205Z,7.28
2019-02-04T16:57:45.406Z,7.00
2019-02-04T17:00:19.444Z,7.28
2019-02-04T17:02:47.918Z,7.83
2019-02-04T17:05:16.365Z,7.47
2019-02-04T17:07:44.564Z,11.50
2019-02-04T17:10:17.468Z,10.63
2019-02-04T17:12:45.669Z,8.03
2019-02-04T17:15:13.871Z,6.87
2019-02-04T17:17:42.246Z,7.08
2019-02-04T17:20:13.718Z,7.55
2019-02-04T17:22:41.912Z,6.40
2019-02-04T17:25:10.115Z,6.08
2019-02-04T17:27:38.389Z,6.47
2019-02-04T17:30:12.796Z,5.72
2019-02-04T17:32:41.275Z,6.40
2019-02-04T17:35:09.488Z,6.58
2019-02-04T17:37:37.699Z,6.45
2019-02-04T17:40:09.165Z,7.28
2019-02-04T17:42:37.372Z,7.60
2019-02-04T17:45:08.775Z,7.47
2019-02-04T17:47:36.972Z,7.95
2019-02-04T17:50:11.873Z,7.17
2019-02-04T17:52:40.152Z,7.35
2019-02-04T17:55:13.951Z,8.35
2019-02-04T17:57:42.153Z,7.00
2019-02-04T18:00:17.692Z,7.45
2019-02-04T18:02:45.877Z,7.70
2019-02-04T18:05:14.087Z,9.93
2019-02-04T18:07:42.300Z,10.45
2019-02-04T18:10:18.224Z,8.93
2019-02-04T18:12:46.796Z,9.03
2019-02-04T18:15:18.048Z,7.50
2019-02-04T18:17:46.262Z,8.08
2019-02-04T18:20:15.276Z,8.63
2019-02-04T18:22:43.497Z,8.55
2019-02-04T18:25:16.596Z,8.75
2019-02-04T18:27:44.803Z,9.00
2019-02-04T18:30:24.239Z,9.48
2019-02-04T18:32:52.470Z,9.95
2019-02-04T18:35:20.920Z,9.28
2019-02-04T18:37:49.296Z,9.38
2019-02-04T18:40:19.141Z,9.28
2019-02-04T18:42:47.723Z,9.75
2019-02-04T18:45:24.435Z,9.63
2019-02-04T18:47:52.642Z,9.03
2019-02-04T18:50:21.765Z,11.20
2019-02-04T18:52:50.349Z,10.20
2019-02-04T18:55:27.216Z,10.13
2019-02-04T18:57:55.427Z,9.93
2019-02-04T19:00:25.672Z,9.40
2019-02-04T19:02:53.887Z,9.88
2019-02-04T19:05:22.467Z,11.75
2019-02-04T19:07:50.682Z,11.93
2019-02-04T19:10:20.720Z,11.18
2019-02-04T19:12:48.938Z,11.40
2019-02-04T19:15:19.729Z,12.07
2019-02-04T19:17:48.328Z,9.40
2019-02-04T19:20:21.608Z,10.53
2019-02-04T19:22:49.815Z,10.82
2019-02-04T19:25:19.764Z,12.75
2019-02-04T19:27:48.113Z,11.80
2019-02-04T19:30:27.865Z,11.08
2019-02-04T19:32:56.453Z,10.38
2019-02-04T19:35:24.645Z,12.00
2019-02-04T19:37:52.852Z,11.97
2019-02-04T19:40:21.059Z,11.08
2019-02-04T19:42:49.306Z,10.90
2019-02-04T19:45:22.669Z,10.65
2019-02-04T19:47:51.258Z,9.75
2019-02-04T19:50:31.179Z,10.95
2019-02-04T19:52:59.388Z,10.65
2019-02-04T19:55:27.588Z,12.00
2019-02-04T19:57:55.791Z,9.95
2019-02-04T20:00:24.259Z,10.68
2019-02-04T20:02:53.315Z,10.85
2019-02-04T20:05:29.733Z,11.65
2019-02-04T20:07:58.308Z,11.88
2019-02-04T20:10:29.879Z,12.25
2019-02-04T20:12:58.175Z,11.93
2019-02-04T20:15:28.388Z,10.75
2019-02-04T20:17:56.617Z,11.68
2019-02-04T20:20:25.155Z,11.70
2019-02-04T20:22:53.351Z,11.60
2019-02-04T20:25:23.703Z,11.97
2019-02-04T20:27:51.901Z,12.13
2019-02-04T20:30:23.380Z,11.53
2019-02-04T20:32:51.893Z,12.07
2019-02-04T20:35:20.126Z,10.48
2019-02-04T20:37:48.320Z,11.15
2019-02-04T20:40:22.336Z,10.78
2019-02-04T20:42:50.537Z,11.50
2019-02-04T20:45:20.467Z,11.38
2019-02-04T20:47:50.304Z,12.00
2019-02-04T20:50:21.312Z,11.05
2019-02-04T20:52:49.517Z,11.30
2019-02-04T20:55:17.730Z,11.18
2019-02-04T20:57:45.927Z,11.60
2019-02-04T21:00:17.576Z,10.88
2019-02-04T21:02:45.764Z,12.25
2019-02-04T21:05:13.992Z,10.98
2019-02-04T21:07:42.272Z,9.85
2019-02-04T21:10:13.120Z,11.05
2019-02-04T21:12:41.319Z,11.10
2019-02-04T21:15:11.856Z,11.88
2019-02-04T21:17:40.068Z,11.50
2019-02-04T21:20:16.478Z,12.43
2019-02-04T21:22:44.697Z,12.98
2019-02-04T21:25:12.912Z,10.45
2019-02-04T21:27:41.108Z,11.43
2019-02-04T21:30:21.764Z,11.97
2019-02-04T21:32:49.961Z,12.07
2019-02-04T21:35:18.181Z,13.85
2019-02-04T21:37:46.367Z,13.35
2019-02-04T21:40:16.215Z,13.15
2019-02-04T21:42:44.868Z,13.43
2019-02-04T21:45:17.689Z,12.63
2019-02-04T21:47:45.876Z,13.62
2019-02-04T21:50:19.965Z,12.70
2019-02-04T21:52:48.168Z,12.55
2019-02-04T21:55:16.435Z,11.80
2019-02-04T21:57:45.028Z,13.03
2019-02-04T22:00:31.316Z,13.98
2019-02-04T22:02:59.507Z,15.10
2019-02-04T22:05:29.853Z,14.30
2019-02-04T22:07:58.060Z,14.87
2019-02-04T22:10:28.101Z,13.28
2019-02-04T22:12:56.581Z,14.45
2019-02-04T22:15:24.775Z,14.90
2019-02-04T22:17:52.994Z,14.18
2019-02-04T22:20:21.188Z,14.30
2019-02-04T22:22:49.401Z,12.75
2019-02-04T22:25:19.597Z,12.43
2019-02-04T22:27:48.231Z,14.00
2019-02-04T22:30:21.550Z,12.85
2019-02-04T22:32:49.756Z,12.47
2019-02-04T22:35:18.019Z,12.93
2019-02-04T22:37:46.238Z,12.15
2019-02-04T22:40:19.176Z,12.95
2019-02-04T22:42:47.796Z,12.73
2019-02-04T22:45:17.233Z,11.73
2019-02-04T22:47:45.592Z,11.48
2019-02-04T22:50:16.887Z,12.37
2019-02-04T22:52:45.096Z,12.05
2019-02-04T22:55:13.743Z,12.20
2019-02-04T22:57:41.952Z,12.43
2019-02-04T23:00:42.356Z,13.32
2019-02-04T23:03:11.179Z,15.45
2019-02-04T23:05:39.375Z,12.68
2019-02-04T23:08:07.660Z,13.15
2019-02-04T23:10:35.860Z,13.28
2019-02-04T23:13:04.644Z,12.63
2019-02-04T23:15:32.846Z,12.75
2019-02-04T23:18:01.051Z,14.00
2019-02-04T23:20:29.624Z,14.45
2019-02-04T23:22:57.859Z,14.95
2019-02-04T23:25:26.057Z,15.20
2019-02-04T23:27:54.277Z,15.83
2019-02-04T23:30:22.761Z,15.03
2019-02-04T23:32:50.955Z,13.55
2019-02-04T23:35:19.639Z,15.00
2019-02-04T23:37:47.845Z,14.58
2019-02-04T23:40:16.928Z,14.90
2019-02-04T23:42:45.128Z,14.25
2019-02-04T23:45:13.332Z,13.65
2019-02-04T23:47:41.533Z,13.70
2019-02-04T23:50:14.321Z,12.82
2019-02-04T23:52:42.788Z,11.97
2019-02-04T23:55:11.932Z,11.78
2019-02-04T23:57:40.143Z,12.45
